sensor_id;sensor_type;location;lat;lon;timestamp;pressure;altitude;pressure_sealevel;temperature;humidity
17936;BME280;9093;52.062;4.508;2023-08-06T00:00:50;100710.75;;;16.99;79.21
17936;BME280;9093;52.062;4.508;2023-08-06T00:03:30;100710.75;;;16.99;78.98
17936;BME280;9093;52.062;4.508;2023-08-06T00:06:10;100712.44;;;17.00;79.27
17936;BME280;9093;52.062;4.508;2023-08-06T00:08:51;100708.78;;;17.01;79.23
17936;BME280;9093;52.062;4.508;2023-08-06T00:11:31;100714.19;;;17.01;79.37
17936;BME280;9093;52.062;4.508;2023-08-06T00:14:12;100711.59;;;16.99;79.52
17936;BME280;9093;52.062;4.508;2023-08-06T00:16:55;100711.47;;;17.01;79.43
17936;BME280;9093;52.062;4.508;2023-08-06T00:19:35;100710.47;;;17.02;79.46
17936;BME280;9093;52.062;4.508;2023-08-06T00:22:16;100714.88;;;17.03;79.80
17936;BME280;9093;52.062;4.508;2023-08-06T00:24:56;100716.59;;;17.04;79.37
17936;BME280;9093;52.062;4.508;2023-08-06T00:27:37;100715.75;;;17.03;79.60
17936;BME280;9093;52.062;4.508;2023-08-06T00:30:18;100712.94;;;17.05;79.34
17936;BME280;9093;52.062;4.508;2023-08-06T00:32:58;100711.31;;;17.02;79.76
17936;BME280;9093;52.062;4.508;2023-08-06T00:35:39;100706.78;;;17.03;79.68
17936;BME280;9093;52.062;4.508;2023-08-06T00:38:19;100720.28;;;17.03;79.80
17936;BME280;9093;52.062;4.508;2023-08-06T00:40:59;100718.31;;;17.05;79.82
17936;BME280;9093;52.062;4.508;2023-08-06T00:43:39;100715.63;;;17.05;79.87
17936;BME280;9093;52.062;4.508;2023-08-06T00:46:20;100710.22;;;17.05;80.07
17936;BME280;9093;52.062;4.508;2023-08-06T00:49:01;100707.66;;;17.03;80.03
17936;BME280;9093;52.062;4.508;2023-08-06T00:51:42;100716.59;;;17.04;80.15
17936;BME280;9093;52.062;4.508;2023-08-06T00:54:23;100711.94;;;17.06;80.09
17936;BME280;9093;52.062;4.508;2023-08-06T00:57:07;100713.91;;;17.04;80.01
17936;BME280;9093;52.062;4.508;2023-08-06T00:59:48;100712.06;;;17.04;80.36
17936;BME280;9093;52.062;4.508;2023-08-06T01:02:29;100711.22;;;17.04;80.16
17936;BME280;9093;52.062;4.508;2023-08-06T01:05:09;100711.09;;;17.05;80.40
17936;BME280;9093;52.062;4.508;2023-08-06T01:16:52;100716.88;;;16.89;80.81
17936;BME280;9093;52.062;4.508;2023-08-06T01:19:33;100715.16;;;16.88;80.72
17936;BME280;9093;52.062;4.508;2023-08-06T01:22:13;100717.84;;;16.88;81.07
17936;BME280;9093;52.062;4.508;2023-08-06T01:24:54;100725.94;;;16.88;81.01
17936;BME280;9093;52.062;4.508;2023-08-06T01:30:30;100722.25;;;16.89;81.08
17936;BME280;9093;52.062;4.508;2023-08-06T01:33:19;100719.56;;;16.89;81.15
17936;BME280;9093;52.062;4.508;2023-08-06T01:36:02;100724.09;;;16.89;81.23
17936;BME280;9093;52.062;4.508;2023-08-06T01:38:44;100727.66;;;16.89;81.14
17936;BME280;9093;52.062;4.508;2023-08-06T01:41:24;100727.66;;;16.89;81.32
17936;BME280;9093;52.062;4.508;2023-08-06T01:44:05;100720.53;;;16.88;81.52
17936;BME280;9093;52.062;4.508;2023-08-06T01:46:46;100727.94;;;16.86;81.44
17936;BME280;9093;52.062;4.508;2023-08-06T01:49:26;100730.63;;;16.86;81.36
17936;BME280;9093;52.062;4.508;2023-08-06T01:52:07;100730.50;;;16.88;81.47
17936;BME280;9093;52.062;4.508;2023-08-06T01:54:47;100729.50;;;16.89;81.57
17936;BME280;9093;52.062;4.508;2023-08-06T01:57:28;100737.47;;;16.91;81.68
17936;BME280;9093;52.062;4.508;2023-08-06T02:00:08;100733.91;;;16.90;81.62
17936;BME280;9093;52.062;4.508;2023-08-06T02:02:49;100742.13;;;16.88;81.64
17936;BME280;9093;52.062;4.508;2023-08-06T02:05:29;100738.72;;;16.86;81.76
17936;BME280;9093;52.062;4.508;2023-08-06T02:08:10;100738.94;;;16.83;82.06
17936;BME280;9093;52.062;4.508;2023-08-06T02:10:50;100749.72;;;16.83;81.91
17936;BME280;9093;52.062;4.508;2023-08-06T02:13:30;100749.63;;;16.85;81.93
17936;BME280;9093;52.062;4.508;2023-08-06T02:16:11;100749.72;;;16.83;82.02
17936;BME280;9093;52.062;4.508;2023-08-06T02:18:51;100747.03;;;16.83;82.35
17936;BME280;9093;52.062;4.508;2023-08-06T02:21:31;100752.44;;;16.83;82.41
17936;BME280;9093;52.062;4.508;2023-08-06T02:24:12;100741.53;;;16.85;82.52
17936;BME280;9093;52.062;4.508;2023-08-06T02:26:52;100742.38;;;16.85;82.30
17936;BME280;9093;52.062;4.508;2023-08-06T02:29:35;100749.63;;;16.85;82.48
17936;BME280;9093;52.062;4.508;2023-08-06T02:32:15;100742.88;;;16.79;82.43
17936;BME280;9093;52.062;4.508;2023-08-06T02:34:56;100746.56;;;16.78;82.74
17936;BME280;9093;52.062;4.508;2023-08-06T02:37:36;100743.97;;;16.77;82.64
17936;BME280;9093;52.062;4.508;2023-08-06T02:40:16;100749.53;;;16.75;82.56
17936;BME280;9093;52.062;4.508;2023-08-06T02:42:57;100754.16;;;16.73;82.98
17936;BME280;9093;52.062;4.508;2023-08-06T02:45:37;100754.41;;;16.70;83.09
17936;BME280;9093;52.062;4.508;2023-08-06T02:48:17;100764.22;;;16.71;83.13
17936;BME280;9093;52.062;4.508;2023-08-06T02:50:58;100763.47;;;16.69;83.02
17936;BME280;9093;52.062;4.508;2023-08-06T02:53:39;100771.06;;;16.64;83.31
17936;BME280;9093;52.062;4.508;2023-08-06T02:56:19;100771.53;;;16.58;83.50
17936;BME280;9093;52.062;4.508;2023-08-06T02:59:00;100771.66;;;16.57;83.51
17936;BME280;9093;52.062;4.508;2023-08-06T03:01:40;100771.78;;;16.55;83.84
17936;BME280;9093;52.062;4.508;2023-08-06T03:04:20;100769.94;;;16.56;83.80
17936;BME280;9093;52.062;4.508;2023-08-06T03:07:01;100765.53;;;16.55;84.04
17936;BME280;9093;52.062;4.508;2023-08-06T03:09:41;100770.94;;;16.55;83.88
17936;BME280;9093;52.062;4.508;2023-08-06T03:12:21;100772.03;;;16.52;84.16
17936;BME280;9093;52.062;4.508;2023-08-06T03:15:02;100774.81;;;16.50;84.19
17936;BME280;9093;52.062;4.508;2023-08-06T03:17:42;100770.66;;;16.46;84.55
17936;BME280;9093;52.062;4.508;2023-08-06T03:20:25;100764.41;;;16.46;84.63
17936;BME280;9093;52.062;4.508;2023-08-06T03:23:05;100758.28;;;16.44;84.66
17936;BME280;9093;52.062;4.508;2023-08-06T03:25:46;100771.91;;;16.42;84.90
17936;BME280;9093;52.062;4.508;2023-08-06T03:28:26;100761.34;;;16.39;85.01
17936;BME280;9093;52.062;4.508;2023-08-06T03:31:07;100763.19;;;16.39;85.25
17936;BME280;9093;52.062;4.508;2023-08-06T03:33:47;100770.31;;;16.40;85.27
17936;BME280;9093;52.062;4.508;2023-08-06T03:36:28;100767.88;;;16.37;85.30
17936;BME280;9093;52.062;4.508;2023-08-06T03:39:08;100769.81;;;16.35;85.57
17936;BME280;9093;52.062;4.508;2023-08-06T03:41:48;100778.97;;;16.32;85.35
17936;BME280;9093;52.062;4.508;2023-08-06T03:44:29;100783.66;;;16.30;85.74
17936;BME280;9093;52.062;4.508;2023-08-06T03:47:09;100797.25;;;16.29;85.84
17936;BME280;9093;52.062;4.508;2023-08-06T03:49:49;100804.34;;;16.30;85.76
17936;BME280;9093;52.062;4.508;2023-08-06T03:52:30;100802.63;;;16.29;85.85
17936;BME280;9093;52.062;4.508;2023-08-06T03:55:10;100802.13;;;16.24;85.84
17936;BME280;9093;52.062;4.508;2023-08-06T03:57:50;100808.72;;;16.20;85.96
17936;BME280;9093;52.062;4.508;2023-08-06T04:00:31;100807.34;;;16.14;85.79
17936;BME280;9093;52.062;4.508;2023-08-06T04:03:11;100820.22;;;16.11;85.93
17936;BME280;9093;52.062;4.508;2023-08-06T04:05:51;100815.53;;;16.01;85.85
17936;BME280;9093;52.062;4.508;2023-08-06T04:08:32;100821.16;;;15.98;85.99
17936;BME280;9093;52.062;4.508;2023-08-06T04:11:12;100818.19;;;15.90;85.88
17936;BME280;9093;52.062;4.508;2023-08-06T04:13:53;100820.59;;;15.82;85.90
17936;BME280;9093;52.062;4.508;2023-08-06T04:16:35;100823.03;;;15.74;86.12
17936;BME280;9093;52.062;4.508;2023-08-06T04:19:15;100824.13;;;15.72;86.18
17936;BME280;9093;52.062;4.508;2023-08-06T04:21:55;100823.88;;;15.75;86.45
17936;BME280;9093;52.062;4.508;2023-08-06T04:24:36;100822.56;;;15.80;86.09
17936;BME280;9093;52.062;4.508;2023-08-06T04:27:19;100836.75;;;15.82;86.20
17936;BME280;9093;52.062;4.508;2023-08-06T04:30:00;100824.91;;;15.85;85.89
17936;BME280;9093;52.062;4.508;2023-08-06T04:32:40;100835.69;;;15.85;85.90
17936;BME280;9093;52.062;4.508;2023-08-06T04:35:21;100831.38;;;15.82;85.95
17936;BME280;9093;52.062;4.508;2023-08-06T04:38:01;100843.25;;;15.80;86.08
17936;BME280;9093;52.062;4.508;2023-08-06T04:40:41;100846.91;;;15.79;86.18
17936;BME280;9093;52.062;4.508;2023-08-06T04:43:22;100853.88;;;15.81;86.38
17936;BME280;9093;52.062;4.508;2023-08-06T04:46:02;100849.50;;;15.80;86.28
17936;BME280;9093;52.062;4.508;2023-08-06T04:48:42;100848.50;;;15.81;86.39
17936;BME280;9093;52.062;4.508;2023-08-06T04:51:23;100849.25;;;15.83;86.13
17936;BME280;9093;52.062;4.508;2023-08-06T04:54:03;100858.53;;;15.79;86.13
17936;BME280;9093;52.062;4.508;2023-08-06T04:56:43;100860.97;;;15.82;86.22
17936;BME280;9093;52.062;4.508;2023-08-06T04:59:24;100857.22;;;15.85;86.48
17936;BME280;9093;52.062;4.508;2023-08-06T05:02:04;100855.88;;;15.90;86.56
17936;BME280;9093;52.062;4.508;2023-08-06T05:04:50;100864.72;;;15.92;86.21
17936;BME280;9093;52.062;4.508;2023-08-06T05:07:31;100867.16;;;15.95;86.47
17936;BME280;9093;52.062;4.508;2023-08-06T05:10:11;100869.97;;;15.94;86.31
17936;BME280;9093;52.062;4.508;2023-08-06T05:12:54;100873.50;;;15.94;86.19
17936;BME280;9093;52.062;4.508;2023-08-06T05:15:34;100876.97;;;15.96;86.33
17936;BME280;9093;52.062;4.508;2023-08-06T05:18:14;100878.69;;;15.97;86.21
17936;BME280;9093;52.062;4.508;2023-08-06T05:20:55;100880.41;;;15.98;86.30
17936;BME280;9093;52.062;4.508;2023-08-06T05:23:35;100889.22;;;16.00;86.32
17936;BME280;9093;52.062;4.508;2023-08-06T05:26:15;100895.47;;;16.01;86.37
17936;BME280;9093;52.062;4.508;2023-08-06T05:28:58;100889.97;;;16.02;86.23
17936;BME280;9093;52.062;4.508;2023-08-06T05:31:38;100904.91;;;16.06;86.52
17936;BME280;9093;52.062;4.508;2023-08-06T05:34:19;100905.16;;;16.03;86.29
17936;BME280;9093;52.062;4.508;2023-08-06T05:36:59;100904.41;;;16.01;86.41
17936;BME280;9093;52.062;4.508;2023-08-06T05:39:39;100916.88;;;16.02;86.41
17936;BME280;9093;52.062;4.508;2023-08-06T05:42:20;100910.88;;;15.99;86.40
17936;BME280;9093;52.062;4.508;2023-08-06T05:45:00;100915.41;;;15.98;86.50
17936;BME280;9093;52.062;4.508;2023-08-06T05:47:40;100916.50;;;15.96;86.37
17936;BME280;9093;52.062;4.508;2023-08-06T05:50:21;100917.81;;;15.90;86.42
17936;BME280;9093;52.062;4.508;2023-08-06T05:53:01;100917.06;;;15.88;86.85
17936;BME280;9093;52.062;4.508;2023-08-06T05:55:41;100918.03;;;15.87;86.81
17936;BME280;9093;52.062;4.508;2023-08-06T05:58:22;100917.81;;;15.90;86.86
17936;BME280;9093;52.062;4.508;2023-08-06T06:01:04;100924.56;;;15.96;86.92
17936;BME280;9093;52.062;4.508;2023-08-06T06:03:44;100924.22;;;16.00;86.86
17936;BME280;9093;52.062;4.508;2023-08-06T06:06:24;100927.44;;;16.05;86.80
17936;BME280;9093;52.062;4.508;2023-08-06T06:09:05;100935.28;;;16.08;86.90
17936;BME280;9093;52.062;4.508;2023-08-06T06:11:45;100933.97;;;16.14;86.81
17936;BME280;9093;52.062;4.508;2023-08-06T06:14:25;100934.59;;;16.18;86.67
17936;BME280;9093;52.062;4.508;2023-08-06T06:17:06;100943.41;;;16.20;86.76
17936;BME280;9093;52.062;4.508;2023-08-06T06:19:46;100943.19;;;16.23;86.78
17936;BME280;9093;52.062;4.508;2023-08-06T06:22:26;100950.31;;;16.24;86.64
17936;BME280;9093;52.062;4.508;2023-08-06T06:25:07;100947.47;;;16.25;86.81
17936;BME280;9093;52.062;4.508;2023-08-06T06:27:47;100949.84;;;16.30;86.66
17936;BME280;9093;52.062;4.508;2023-08-06T06:30:27;100953.59;;;16.27;86.57
17936;BME280;9093;52.062;4.508;2023-08-06T06:33:08;100958.88;;;16.29;86.75
17936;BME280;9093;52.062;4.508;2023-08-06T06:35:48;100957.66;;;16.33;86.79
17936;BME280;9093;52.062;4.508;2023-08-06T06:38:29;100958.63;;;16.32;86.73
17936;BME280;9093;52.062;4.508;2023-08-06T06:41:09;100961.22;;;16.33;86.76
17936;BME280;9093;52.062;4.508;2023-08-06T06:43:49;100966.72;;;16.32;86.62
17936;BME280;9093;52.062;4.508;2023-08-06T06:46:30;100969.41;;;16.32;86.59
17936;BME280;9093;52.062;4.508;2023-08-06T06:49:10;100970.41;;;16.31;86.69
17936;BME280;9093;52.062;4.508;2023-08-06T06:51:50;100968.81;;;16.28;86.60
17936;BME280;9093;52.062;4.508;2023-08-06T06:54:31;100976.88;;;16.28;86.39
17936;BME280;9093;52.062;4.508;2023-08-06T06:57:11;100976.03;;;16.28;86.52
17936;BME280;9093;52.062;4.508;2023-08-06T06:59:51;100978.72;;;16.28;86.50
17936;BME280;9093;52.062;4.508;2023-08-06T07:02:32;100977.00;;;16.27;86.43
17936;BME280;9093;52.062;4.508;2023-08-06T07:05:12;100982.16;;;16.30;86.67
17936;BME280;9093;52.062;4.508;2023-08-06T07:07:52;100978.50;;;16.31;86.50
17936;BME280;9093;52.062;4.508;2023-08-06T07:10:32;100980.44;;;16.29;86.34
17936;BME280;9093;52.062;4.508;2023-08-06T07:13:13;100992.09;;;16.29;86.44
17936;BME280;9093;52.062;4.508;2023-08-06T07:15:54;100989.50;;;16.28;86.63
17936;BME280;9093;52.062;4.508;2023-08-06T07:18:34;100993.91;;;16.29;86.60
17936;BME280;9093;52.062;4.508;2023-08-06T07:21:15;100998.34;;;16.30;86.45
17936;BME280;9093;52.062;4.508;2023-08-06T07:23:55;100998.34;;;16.30;86.33
17936;BME280;9093;52.062;4.508;2023-08-06T07:26:36;100997.47;;;16.29;86.57
17936;BME280;9093;52.062;4.508;2023-08-06T07:29:16;101008.75;;;16.34;86.56
17936;BME280;9093;52.062;4.508;2023-08-06T07:32:01;101002.50;;;16.34;86.40
17936;BME280;9093;52.062;4.508;2023-08-06T07:34:42;101003.47;;;16.33;86.34
17936;BME280;9093;52.062;4.508;2023-08-06T07:37:22;101008.88;;;16.33;86.42
17936;BME280;9093;52.062;4.508;2023-08-06T07:40:03;101010.84;;;16.31;86.33
17936;BME280;9093;52.062;4.508;2023-08-06T07:42:44;101015.13;;;16.33;86.42
17936;BME280;9093;52.062;4.508;2023-08-06T07:45:24;101010.59;;;16.34;86.23
17936;BME280;9093;52.062;4.508;2023-08-06T07:48:06;101010.59;;;16.34;86.28
17936;BME280;9093;52.062;4.508;2023-08-06T07:50:51;101015.97;;;16.34;86.31
17936;BME280;9093;52.062;4.508;2023-08-06T07:53:33;101005.94;;;16.36;86.30
17936;BME280;9093;52.062;4.508;2023-08-06T07:56:13;101011.09;;;16.39;86.55
17936;BME280;9093;52.062;4.508;2023-08-06T07:58:54;101017.00;;;16.44;86.43
17936;BME280;9093;52.062;4.508;2023-08-06T08:01:34;101009.66;;;16.46;86.68
17936;BME280;9093;52.062;4.508;2023-08-06T08:04:14;101011.16;;;16.50;86.44
17936;BME280;9093;52.062;4.508;2023-08-06T08:06:55;101023.44;;;16.54;86.59
17936;BME280;9093;52.062;4.508;2023-08-06T08:09:35;101018.78;;;16.56;86.62
17936;BME280;9093;52.062;4.508;2023-08-06T08:12:16;101010.44;;;16.59;86.53
17936;BME280;9093;52.062;4.508;2023-08-06T08:14:56;101022.63;;;16.65;86.80
17936;BME280;9093;52.062;4.508;2023-08-06T08:17:36;101026.84;;;16.69;86.77
17936;BME280;9093;52.062;4.508;2023-08-06T08:20:17;101030.38;;;16.69;86.95
17936;BME280;9093;52.062;4.508;2023-08-06T08:23:01;101029.19;;;16.73;86.62
17936;BME280;9093;52.062;4.508;2023-08-06T08:25:42;101031.75;;;16.75;86.99
17936;BME280;9093;52.062;4.508;2023-08-06T08:28:22;101026.97;;;16.78;86.93
17936;BME280;9093;52.062;4.508;2023-08-06T08:31:02;101036.53;;;16.82;86.88
17936;BME280;9093;52.062;4.508;2023-08-06T08:33:43;101031.91;;;16.84;86.96
17936;BME280;9093;52.062;4.508;2023-08-06T08:36:23;101032.66;;;16.86;86.78
17936;BME280;9093;52.062;4.508;2023-08-06T08:39:03;101036.06;;;16.88;86.84
17936;BME280;9093;52.062;4.508;2023-08-06T08:41:45;101044.91;;;16.91;86.75
17936;BME280;9093;52.062;4.508;2023-08-06T08:44:25;101038.28;;;16.95;86.98
17936;BME280;9093;52.062;4.508;2023-08-06T08:47:08;101040.97;;;16.95;86.86
17936;BME280;9093;52.062;4.508;2023-08-06T08:49:54;101044.22;;;17.00;86.86
17936;BME280;9093;52.062;4.508;2023-08-06T08:52:35;101041.25;;;17.03;86.85
17936;BME280;9093;52.062;4.508;2023-08-06T08:55:16;101046.44;;;17.06;86.98
17936;BME280;9093;52.062;4.508;2023-08-06T08:57:56;101047.16;;;17.08;87.05
17936;BME280;9093;52.062;4.508;2023-08-06T09:00:37;101052.31;;;17.11;87.00
17936;BME280;9093;52.062;4.508;2023-08-06T09:03:17;101060.41;;;17.11;86.85
17936;BME280;9093;52.062;4.508;2023-08-06T09:05:59;101046.94;;;17.11;87.03
17936;BME280;9093;52.062;4.508;2023-08-06T09:09:00;101067.53;;;17.12;87.12
17936;BME280;9093;52.062;4.508;2023-08-06T09:11:45;101066.69;;;17.11;86.96
17936;BME280;9093;52.062;4.508;2023-08-06T09:14:26;101069.13;;;17.14;86.94
17936;BME280;9093;52.062;4.508;2023-08-06T09:17:06;101070.75;;;17.17;87.01
17936;BME280;9093;52.062;4.508;2023-08-06T09:19:47;101076.53;;;17.23;87.14
17936;BME280;9093;52.062;4.508;2023-08-06T09:22:34;101065.34;;;17.28;87.23
17936;BME280;9093;52.062;4.508;2023-08-06T09:25:24;101060.59;;;17.32;86.86
17936;BME280;9093;52.062;4.508;2023-08-06T09:28:05;101075.66;;;17.34;87.26
17936;BME280;9093;52.062;4.508;2023-08-06T09:30:47;101067.09;;;17.40;86.91
17936;BME280;9093;52.062;4.508;2023-08-06T09:33:29;101073.13;;;17.44;86.84
17936;BME280;9093;52.062;4.508;2023-08-06T09:36:10;101080.84;;;17.48;86.88
17936;BME280;9093;52.062;4.508;2023-08-06T09:38:51;101086.03;;;17.51;87.10
17936;BME280;9093;52.062;4.508;2023-08-06T09:41:31;101092.88;;;17.55;86.96
17936;BME280;9093;52.062;4.508;2023-08-06T09:44:21;101090.94;;;17.57;86.93
17936;BME280;9093;52.062;4.508;2023-08-06T09:47:03;101089.63;;;17.63;87.10
17936;BME280;9093;52.062;4.508;2023-08-06T09:49:44;101089.25;;;17.67;86.99
17936;BME280;9093;52.062;4.508;2023-08-06T09:52:27;101104.22;;;17.72;87.14
17936;BME280;9093;52.062;4.508;2023-08-06T09:55:13;101104.00;;;17.75;86.69
17936;BME280;9093;52.062;4.508;2023-08-06T09:57:54;101101.03;;;17.78;86.91
17936;BME280;9093;52.062;4.508;2023-08-06T10:00:34;101095.88;;;17.86;86.67
17936;BME280;9093;52.062;4.508;2023-08-06T10:03:17;101127.06;;;17.90;86.79
17936;BME280;9093;52.062;4.508;2023-08-06T10:05:58;101117.84;;;17.92;86.63
17936;BME280;9093;52.062;4.508;2023-08-06T10:08:39;101121.41;;;17.93;86.53
17936;BME280;9093;52.062;4.508;2023-08-06T10:11:22;101127.56;;;17.95;86.70
17936;BME280;9093;52.062;4.508;2023-08-06T10:14:07;101125.59;;;17.97;86.71
17936;BME280;9093;52.062;4.508;2023-08-06T10:16:49;101134.44;;;17.99;86.25
17936;BME280;9093;52.062;4.508;2023-08-06T10:19:30;101136.75;;;18.03;86.31
17936;BME280;9093;52.062;4.508;2023-08-06T10:22:16;101126.81;;;18.04;86.07
17936;BME280;9093;52.062;4.508;2023-08-06T10:24:58;101133.09;;;18.04;86.17
17936;BME280;9093;52.062;4.508;2023-08-06T10:30:32;101137.63;;;18.04;85.97
17936;BME280;9093;52.062;4.508;2023-08-06T10:33:12;101135.91;;;18.03;85.93
17936;BME280;9093;52.062;4.508;2023-08-06T10:36:01;101137.41;;;18.07;85.72
17936;BME280;9093;52.062;4.508;2023-08-06T10:38:49;101139.13;;;18.08;85.56
17936;BME280;9093;52.062;4.508;2023-08-06T10:41:30;101130.25;;;18.06;85.32
17936;BME280;9093;52.062;4.508;2023-08-06T10:44:11;101132.00;;;18.07;85.59
17936;BME280;9093;52.062;4.508;2023-08-06T10:46:51;101145.50;;;18.07;85.22
17936;BME280;9093;52.062;4.508;2023-08-06T10:49:32;101144.53;;;18.08;85.40
17936;BME280;9093;52.062;4.508;2023-08-06T10:52:12;101142.53;;;18.10;85.21
17936;BME280;9093;52.062;4.508;2023-08-06T10:54:54;101135.91;;;18.14;85.20
17936;BME280;9093;52.062;4.508;2023-08-06T10:57:37;101152.84;;;18.16;85.13
17936;BME280;9093;52.062;4.508;2023-08-06T11:00:17;101147.22;;;18.19;84.82
17936;BME280;9093;52.062;4.508;2023-08-06T11:02:58;101151.38;;;18.23;85.04
17936;BME280;9093;52.062;4.508;2023-08-06T11:05:39;101160.94;;;18.27;85.02
17936;BME280;9093;52.062;4.508;2023-08-06T11:08:32;101148.91;;;18.31;84.63
17936;BME280;9093;52.062;4.508;2023-08-06T11:11:14;101165.38;;;18.39;84.81
17936;BME280;9093;52.062;4.508;2023-08-06T11:13:55;101154.31;;;18.42;84.48
17936;BME280;9093;52.062;4.508;2023-08-06T11:16:35;101157.75;;;18.44;84.02
17936;BME280;9093;52.062;4.508;2023-08-06T11:19:16;101162.88;;;18.47;83.46
17936;BME280;9093;52.062;4.508;2023-08-06T11:21:56;101157.97;;;18.53;83.16
17936;BME280;9093;52.062;4.508;2023-08-06T11:24:37;101144.00;;;18.59;82.78
17936;BME280;9093;52.062;4.508;2023-08-06T11:27:18;101159.72;;;18.65;82.35
17936;BME280;9093;52.062;4.508;2023-08-06T11:29:58;101154.91;;;18.68;82.19
17936;BME280;9093;52.062;4.508;2023-08-06T11:32:46;101162.63;;;18.73;81.67
17936;BME280;9093;52.062;4.508;2023-08-06T11:35:27;101151.28;;;18.79;81.87
17936;BME280;9093;52.062;4.508;2023-08-06T11:38:07;101156.47;;;18.82;81.47
17936;BME280;9093;52.062;4.508;2023-08-06T11:40:50;101155.59;;;18.81;81.40
17936;BME280;9093;52.062;4.508;2023-08-06T11:43:30;101164.59;;;18.82;81.29
17936;BME280;9093;52.062;4.508;2023-08-06T11:46:11;101150.78;;;18.85;80.94
17936;BME280;9093;52.062;4.508;2023-08-06T11:48:55;101156.53;;;18.92;80.54
17936;BME280;9093;52.062;4.508;2023-08-06T11:51:36;101152.63;;;18.96;80.58
17936;BME280;9093;52.062;4.508;2023-08-06T11:54:16;101172.88;;;19.01;80.00
17936;BME280;9093;52.062;4.508;2023-08-06T11:56:56;101162.66;;;19.05;79.73
17936;BME280;9093;52.062;4.508;2023-08-06T11:59:38;101150.44;;;19.10;79.69
17936;BME280;9093;52.062;4.508;2023-08-06T12:02:21;101170.47;;;19.19;79.06
17936;BME280;9093;52.062;4.508;2023-08-06T12:05:09;101168.50;;;19.21;78.93
17936;BME280;9093;52.062;4.508;2023-08-06T12:07:51;101157.78;;;19.19;78.57
17936;BME280;9093;52.062;4.508;2023-08-06T12:10:34;101162.22;;;19.20;77.86
17936;BME280;9093;52.062;4.508;2023-08-06T12:13:14;101177.09;;;19.26;77.75
17936;BME280;9093;52.062;4.508;2023-08-06T12:24:21;101177.03;;;19.37;76.71
17936;BME280;9093;52.062;4.508;2023-08-06T12:27:01;101202.09;;;19.18;76.97
17936;BME280;9093;52.062;4.508;2023-08-06T12:29:44;101192.38;;;18.84;77.03
17936;BME280;9093;52.062;4.508;2023-08-06T12:32:24;101196.72;;;18.64;77.54
17936;BME280;9093;52.062;4.508;2023-08-06T12:35:05;101198.69;;;18.62;77.87
17936;BME280;9093;52.062;4.508;2023-08-06T12:37:47;101199.78;;;18.60;77.75
17936;BME280;9093;52.062;4.508;2023-08-06T12:40:27;101206.91;;;18.61;77.78
17936;BME280;9093;52.062;4.508;2023-08-06T12:43:07;101210.38;;;18.63;78.05
17936;BME280;9093;52.062;4.508;2023-08-06T12:45:48;101208.13;;;18.68;77.73
17936;BME280;9093;52.062;4.508;2023-08-06T12:48:29;101208.88;;;18.70;77.44
17936;BME280;9093;52.062;4.508;2023-08-06T12:51:09;101207.38;;;18.66;77.45
17936;BME280;9093;52.062;4.508;2023-08-06T12:53:49;101224.88;;;18.62;77.11
17936;BME280;9093;52.062;4.508;2023-08-06T12:56:29;101242.53;;;18.55;76.94
17936;BME280;9093;52.062;4.508;2023-08-06T12:59:10;101224.09;;;18.48;76.75
17936;BME280;9093;52.062;4.508;2023-08-06T13:01:50;101226.91;;;18.47;76.76
17936;BME280;9093;52.062;4.508;2023-08-06T13:04:30;101228.75;;;18.46;76.69
17936;BME280;9093;52.062;4.508;2023-08-06T13:07:11;101223.25;;;18.48;77.04
17936;BME280;9093;52.062;4.508;2023-08-06T13:09:51;101231.47;;;18.46;77.04
17936;BME280;9093;52.062;4.508;2023-08-06T13:12:32;101244.28;;;18.44;77.10
17936;BME280;9093;52.062;4.508;2023-08-06T13:15:12;101236.38;;;18.41;76.84
17936;BME280;9093;52.062;4.508;2023-08-06T13:17:54;101245.47;;;18.40;77.06
17936;BME280;9093;52.062;4.508;2023-08-06T13:20:38;101250.78;;;18.42;76.97
17936;BME280;9093;52.062;4.508;2023-08-06T13:23:20;101248.81;;;18.44;76.90
17936;BME280;9093;52.062;4.508;2023-08-06T13:26:01;101263.69;;;18.49;76.49
17936;BME280;9093;52.062;4.508;2023-08-06T13:28:41;101264.94;;;18.57;76.73
17936;BME280;9093;52.062;4.508;2023-08-06T13:31:22;101267.28;;;18.61;76.34
17936;BME280;9093;52.062;4.508;2023-08-06T13:34:02;101275.16;;;18.64;76.56
17936;BME280;9093;52.062;4.508;2023-08-06T13:36:42;101271.31;;;18.67;76.57
17936;BME280;9093;52.062;4.508;2023-08-06T13:39:23;101265.56;;;18.71;76.73
17936;BME280;9093;52.062;4.508;2023-08-06T13:42:03;101278.22;;;18.71;76.79
17936;BME280;9093;52.062;4.508;2023-08-06T13:44:43;101301.81;;;18.69;76.70
17936;BME280;9093;52.062;4.508;2023-08-06T13:47:24;101290.38;;;18.65;76.44
17936;BME280;9093;52.062;4.508;2023-08-06T13:50:04;101304.53;;;18.58;76.01
17936;BME280;9093;52.062;4.508;2023-08-06T13:52:45;101325.63;;;18.53;76.03
17936;BME280;9093;52.062;4.508;2023-08-06T13:55:25;101333.97;;;18.49;76.17
17936;BME280;9093;52.062;4.508;2023-08-06T13:58:06;101316.53;;;18.42;75.89
17936;BME280;9093;52.062;4.508;2023-08-06T14:00:46;101319.59;;;18.38;76.02
17936;BME280;9093;52.062;4.508;2023-08-06T14:03:27;101341.59;;;18.33;76.00
17936;BME280;9093;52.062;4.508;2023-08-06T14:06:07;101351.03;;;18.28;75.82
17936;BME280;9093;52.062;4.508;2023-08-06T14:08:47;101335.28;;;18.22;76.13
17936;BME280;9093;52.062;4.508;2023-08-06T14:11:28;101359.75;;;18.20;75.98
17936;BME280;9093;52.062;4.508;2023-08-06T14:14:08;101350.50;;;18.12;76.02
17936;BME280;9093;52.062;4.508;2023-08-06T14:16:48;101375.13;;;17.96;75.85
17936;BME280;9093;52.062;4.508;2023-08-06T14:19:29;101386.81;;;17.73;75.73
17936;BME280;9093;52.062;4.508;2023-08-06T14:22:10;101386.88;;;17.47;76.29
17936;BME280;9093;52.062;4.508;2023-08-06T14:24:50;101402.69;;;17.28;76.85
17936;BME280;9093;52.062;4.508;2023-08-06T14:27:32;101394.72;;;17.14;77.22
17936;BME280;9093;52.062;4.508;2023-08-06T14:30:13;101391.75;;;17.06;77.08
17936;BME280;9093;52.062;4.508;2023-08-06T14:32:53;101392.19;;;17.00;77.19
17936;BME280;9093;52.062;4.508;2023-08-06T14:35:33;101394.56;;;16.92;77.27